sensor_id;sensor_type;location;lat;lon;timestamp;P1;durP1;ratioP1;P2;durP2;ratioP2
70450;SDS011;58869;51.982;4.450;2023-04-01T00:02:18;31.69;;;21.20;;
70450;SDS011;58869;51.982;4.450;2023-04-01T00:04:44;31.73;;;21.37;;
70450;SDS011;58869;51.982;4.450;2023-04-01T00:07:09;30.42;;;20.56;;
70450;SDS011;58869;51.982;4.450;2023-04-01T00:09:36;30.08;;;20.28;;
70450;SDS011;58869;51.982;4.450;2023-04-01T00:12:04;23.53;;;16.56;;
70450;SDS011;58869;51.982;4.450;2023-04-01T00:14:30;24.06;;;16.67;;
70450;SDS011;58869;51.982;4.450;2023-04-01T00:16:56;22.94;;;16.35;;
70450;SDS011;58869;51.982;4.450;2023-04-01T00:19:21;23.46;;;16.56;;
70450;SDS011;58869;51.982;4.450;2023-04-01T00:21:47;22.70;;;15.82;;
70450;SDS011;58869;51.982;4.450;2023-04-01T00:24:13;26.19;;;17.66;;
70450;SDS011;58869;51.982;4.450;2023-04-01T00:26:38;25.80;;;17.41;;
70450;SDS011;58869;51.982;4.450;2023-04-01T00:29:04;24.74;;;16.64;;
70450;SDS011;58869;51.982;4.450;2023-04-01T00:31:30;25.98;;;17.44;;
70450;SDS011;58869;51.982;4.450;2023-04-01T00:33:56;23.26;;;16.05;;
70450;SDS011;58869;51.982;4.450;2023-04-01T00:36:21;21.25;;;14.96;;
70450;SDS011;58869;51.982;4.450;2023-04-01T00:38:48;23.29;;;15.84;;
70450;SDS011;58869;51.982;4.450;2023-04-01T00:41:15;25.47;;;17.40;;
70450;SDS011;58869;51.982;4.450;2023-04-01T00:43:42;25.28;;;17.23;;
70450;SDS011;58869;51.982;4.450;2023-04-01T00:46:10;26.08;;;17.86;;
70450;SDS011;58869;51.982;4.450;2023-04-01T00:48:36;23.85;;;16.32;;
70450;SDS011;58869;51.982;4.450;2023-04-01T00:51:06;22.36;;;15.44;;
70450;SDS011;58869;51.982;4.450;2023-04-01T00:53:35;22.83;;;15.82;;
70450;SDS011;58869;51.982;4.450;2023-04-01T00:58:46;22.57;;;16.06;;
70450;SDS011;58869;51.982;4.450;2023-04-01T01:01:15;24.11;;;16.86;;
70450;SDS011;58869;51.982;4.450;2023-04-01T01:03:44;25.84;;;17.96;;
70450;SDS011;58869;51.982;4.450;2023-04-01T01:11:53;25.22;;;17.99;;
70450;SDS011;58869;51.982;4.450;2023-04-01T01:16:54;18.35;;;13.43;;
70450;SDS011;58869;51.982;4.450;2023-04-01T01:22:07;16.40;;;12.34;;
70450;SDS011;58869;51.982;4.450;2023-04-01T01:25:02;14.94;;;11.32;;
70450;SDS011;58869;51.982;4.450;2023-04-01T01:30:48;15.31;;;11.38;;
70450;SDS011;58869;51.982;4.450;2023-04-01T01:36:14;11.35;;;9.11;;
70450;SDS011;58869;51.982;4.450;2023-04-01T01:38:42;11.83;;;9.23;;
70450;SDS011;58869;51.982;4.450;2023-04-01T01:41:11;12.83;;;10.26;;
70450;SDS011;58869;51.982;4.450;2023-04-01T01:43:42;12.95;;;10.38;;
70450;SDS011;58869;51.982;4.450;2023-04-01T01:46:11;12.53;;;10.11;;
70450;SDS011;58869;51.982;4.450;2023-04-01T01:48:42;10.52;;;8.87;;
70450;SDS011;58869;51.982;4.450;2023-04-01T01:51:09;11.66;;;9.45;;
70450;SDS011;58869;51.982;4.450;2023-04-01T01:53:34;11.30;;;9.52;;
70450;SDS011;58869;51.982;4.450;2023-04-01T01:56:00;10.71;;;9.12;;
70450;SDS011;58869;51.982;4.450;2023-04-01T02:00:57;9.63;;;8.58;;
70450;SDS011;58869;51.982;4.450;2023-04-01T02:03:31;8.70;;;7.73;;
70450;SDS011;58869;51.982;4.450;2023-04-01T02:06:00;7.24;;;6.50;;
70450;SDS011;58869;51.982;4.450;2023-04-01T02:11:29;7.06;;;6.38;;
70450;SDS011;58869;51.982;4.450;2023-04-01T02:14:08;7.42;;;6.75;;
70450;SDS011;58869;51.982;4.450;2023-04-01T02:16:43;7.07;;;6.48;;
70450;SDS011;58869;51.982;4.450;2023-04-01T02:19:13;7.38;;;6.98;;
70450;SDS011;58869;51.982;4.450;2023-04-01T02:21:47;7.50;;;7.06;;
70450;SDS011;58869;51.982;4.450;2023-04-01T02:24:17;6.54;;;6.21;;
70450;SDS011;58869;51.982;4.450;2023-04-01T02:26:46;7.18;;;6.91;;
70450;SDS011;58869;51.982;4.450;2023-04-01T02:29:12;5.84;;;5.71;;
70450;SDS011;58869;51.982;4.450;2023-04-01T02:31:38;5.84;;;5.72;;
70450;SDS011;58869;51.982;4.450;2023-04-01T02:34:06;6.34;;;6.25;;
70450;SDS011;58869;51.982;4.450;2023-04-01T02:36:32;6.67;;;6.58;;
70450;SDS011;58869;51.982;4.450;2023-04-01T02:39:00;6.39;;;6.32;;
70450;SDS011;58869;51.982;4.450;2023-04-01T02:41:29;6.38;;;6.33;;
70450;SDS011;58869;51.982;4.450;2023-04-01T02:43:54;6.29;;;6.26;;
70450;SDS011;58869;51.982;4.450;2023-04-01T02:46:22;5.55;;;5.54;;
70450;SDS011;58869;51.982;4.450;2023-04-01T02:48:48;5.64;;;5.64;;
70450;SDS011;58869;51.982;4.450;2023-04-01T02:51:13;5.64;;;5.64;;
70450;SDS011;58869;51.982;4.450;2023-04-01T02:53:38;6.32;;;6.32;;
70450;SDS011;58869;51.982;4.450;2023-04-01T02:56:04;6.91;;;6.89;;
70450;SDS011;58869;51.982;4.450;2023-04-01T02:58:30;8.41;;;8.39;;
70450;SDS011;58869;51.982;4.450;2023-04-01T03:00:55;9.92;;;9.82;;
70450;SDS011;58869;51.982;4.450;2023-04-01T03:03:21;11.34;;;11.22;;
70450;SDS011;58869;51.982;4.450;2023-04-01T03:05:46;12.39;;;12.24;;
70450;SDS011;58869;51.982;4.450;2023-04-01T03:08:11;12.89;;;12.66;;
70450;SDS011;58869;51.982;4.450;2023-04-01T03:10:37;13.78;;;13.52;;
70450;SDS011;58869;51.982;4.450;2023-04-01T03:13:02;15.07;;;14.84;;
70450;SDS011;58869;51.982;4.450;2023-04-01T03:15:31;17.04;;;16.75;;
70450;SDS011;58869;51.982;4.450;2023-04-01T03:17:56;18.01;;;17.55;;
70450;SDS011;58869;51.982;4.450;2023-04-01T03:20:22;18.95;;;17.99;;
70450;SDS011;58869;51.982;4.450;2023-04-01T03:22:47;19.50;;;18.51;;
70450;SDS011;58869;51.982;4.450;2023-04-01T03:25:13;19.82;;;19.14;;
70450;SDS011;58869;51.982;4.450;2023-04-01T03:27:39;20.34;;;19.56;;
70450;SDS011;58869;51.982;4.450;2023-04-01T03:30:04;20.53;;;19.52;;
70450;SDS011;58869;51.982;4.450;2023-04-01T03:32:31;19.47;;;18.48;;
70450;SDS011;58869;51.982;4.450;2023-04-01T03:34:56;20.26;;;19.11;;
70450;SDS011;58869;51.982;4.450;2023-04-01T03:37:22;18.45;;;17.66;;
70450;SDS011;58869;51.982;4.450;2023-04-01T03:39:48;18.86;;;17.58;;
70450;SDS011;58869;51.982;4.450;2023-04-01T03:42:14;17.74;;;17.00;;
70450;SDS011;58869;51.982;4.450;2023-04-01T03:44:39;16.65;;;16.07;;
70450;SDS011;58869;51.982;4.450;2023-04-01T03:47:05;16.24;;;15.63;;
70450;SDS011;58869;51.982;4.450;2023-04-01T03:49:30;15.83;;;15.29;;
70450;SDS011;58869;51.982;4.450;2023-04-01T03:51:57;16.94;;;16.11;;
70450;SDS011;58869;51.982;4.450;2023-04-01T03:54:22;18.11;;;16.86;;
70450;SDS011;58869;51.982;4.450;2023-04-01T03:56:48;18.44;;;17.25;;
70450;SDS011;58869;51.982;4.450;2023-04-01T03:59:13;18.14;;;17.06;;
70450;SDS011;58869;51.982;4.450;2023-04-01T04:01:39;18.45;;;17.38;;
70450;SDS011;58869;51.982;4.450;2023-04-01T04:04:05;17.73;;;16.68;;
70450;SDS011;58869;51.982;4.450;2023-04-01T04:06:30;18.13;;;16.95;;
70450;SDS011;58869;51.982;4.450;2023-04-01T04:08:56;18.47;;;17.33;;
70450;SDS011;58869;51.982;4.450;2023-04-01T04:11:22;17.93;;;16.70;;
70450;SDS011;58869;51.982;4.450;2023-04-01T04:13:48;16.94;;;15.77;;
70450;SDS011;58869;51.982;4.450;2023-04-01T04:16:14;15.77;;;15.01;;
70450;SDS011;58869;51.982;4.450;2023-04-01T04:18:40;15.91;;;15.00;;
70450;SDS011;58869;51.982;4.450;2023-04-01T04:21:06;16.00;;;15.11;;
70450;SDS011;58869;51.982;4.450;2023-04-01T04:23:31;16.79;;;15.83;;
70450;SDS011;58869;51.982;4.450;2023-04-01T04:28:25;16.27;;;15.54;;
70450;SDS011;58869;51.982;4.450;2023-04-01T04:30:51;16.60;;;16.06;;
70450;SDS011;58869;51.982;4.450;2023-04-01T04:33:17;16.53;;;16.13;;
70450;SDS011;58869;51.982;4.450;2023-04-01T04:35:43;16.29;;;15.91;;
70450;SDS011;58869;51.982;4.450;2023-04-01T04:38:09;16.80;;;16.38;;
70450;SDS011;58869;51.982;4.450;2023-04-01T04:40:35;16.03;;;15.69;;
70450;SDS011;58869;51.982;4.450;2023-04-01T04:43:02;16.44;;;15.89;;
70450;SDS011;58869;51.982;4.450;2023-04-01T04:45:27;16.31;;;15.82;;
70450;SDS011;58869;51.982;4.450;2023-04-01T04:47:59;15.91;;;15.33;;
70450;SDS011;58869;51.982;4.450;2023-04-01T04:50:25;15.32;;;14.98;;
70450;SDS011;58869;51.982;4.450;2023-04-01T04:52:51;15.50;;;15.04;;
70450;SDS011;58869;51.982;4.450;2023-04-01T04:55:17;15.23;;;14.80;;
70450;SDS011;58869;51.982;4.450;2023-04-01T04:57:42;14.67;;;14.24;;
70450;SDS011;58869;51.982;4.450;2023-04-01T05:00:08;14.07;;;13.75;;
70450;SDS011;58869;51.982;4.450;2023-04-01T05:02:35;14.45;;;14.08;;
70450;SDS011;58869;51.982;4.450;2023-04-01T05:05:00;14.98;;;14.64;;
70450;SDS011;58869;51.982;4.450;2023-04-01T05:07:26;15.83;;;15.65;;
70450;SDS011;58869;51.982;4.450;2023-04-01T05:09:51;16.48;;;16.11;;
70450;SDS011;58869;51.982;4.450;2023-04-01T05:12:17;16.56;;;16.25;;
70450;SDS011;58869;51.982;4.450;2023-04-01T05:14:42;17.96;;;17.51;;
70450;SDS011;58869;51.982;4.450;2023-04-01T05:17:09;18.19;;;17.73;;
70450;SDS011;58869;51.982;4.450;2023-04-01T05:19:35;18.91;;;18.54;;
70450;SDS011;58869;51.982;4.450;2023-04-01T05:22:01;19.06;;;18.79;;
70450;SDS011;58869;51.982;4.450;2023-04-01T05:24:26;19.64;;;19.23;;
70450;SDS011;58869;51.982;4.450;2023-04-01T05:26:52;19.94;;;19.49;;
70450;SDS011;58869;51.982;4.450;2023-04-01T05:29:17;19.83;;;19.40;;
70450;SDS011;58869;51.982;4.450;2023-04-01T05:31:45;18.02;;;17.55;;
70450;SDS011;58869;51.982;4.450;2023-04-01T05:34:11;17.50;;;16.96;;
70450;SDS011;58869;51.982;4.450;2023-04-01T05:36:36;17.08;;;16.58;;
70450;SDS011;58869;51.982;4.450;2023-04-01T05:39:02;16.13;;;15.80;;
70450;SDS011;58869;51.982;4.450;2023-04-01T05:41:28;15.14;;;14.71;;
70450;SDS011;58869;51.982;4.450;2023-04-01T05:43:53;15.77;;;15.47;;
70450;SDS011;58869;51.982;4.450;2023-04-01T05:46:19;15.60;;;15.27;;
70450;SDS011;58869;51.982;4.450;2023-04-01T05:48:45;16.61;;;16.22;;
70450;SDS011;58869;51.982;4.450;2023-04-01T05:51:12;15.73;;;15.52;;
70450;SDS011;58869;51.982;4.450;2023-04-01T05:53:39;15.55;;;15.23;;
70450;SDS011;58869;51.982;4.450;2023-04-01T05:56:04;14.06;;;13.81;;
70450;SDS011;58869;51.982;4.450;2023-04-01T05:58:30;13.72;;;13.57;;
70450;SDS011;58869;51.982;4.450;2023-04-01T06:01:00;15.33;;;15.15;;
70450;SDS011;58869;51.982;4.450;2023-04-01T06:03:29;15.90;;;15.67;;
70450;SDS011;58869;51.982;4.450;2023-04-01T06:05:54;17.72;;;17.45;;
70450;SDS011;58869;51.982;4.450;2023-04-01T06:08:20;17.32;;;17.15;;
70450;SDS011;58869;51.982;4.450;2023-04-01T06:21:36;15.95;;;15.71;;
70450;SDS011;58869;51.982;4.450;2023-04-01T06:24:39;16.27;;;16.13;;
70450;SDS011;58869;51.982;4.450;2023-04-01T06:33:01;15.85;;;15.73;;
70450;SDS011;58869;51.982;4.450;2023-04-01T06:49:48;15.59;;;15.45;;
70450;SDS011;58869;51.982;4.450;2023-04-01T06:54:55;15.47;;;15.26;;
70450;SDS011;58869;51.982;4.450;2023-04-01T06:57:41;12.93;;;12.89;;
70450;SDS011;58869;51.982;4.450;2023-04-01T07:00:57;14.11;;;14.11;;
70450;SDS011;58869;51.982;4.450;2023-04-01T07:05:46;13.83;;;13.78;;
70450;SDS011;58869;51.982;4.450;2023-04-01T07:08:18;12.50;;;12.46;;
70450;SDS011;58869;51.982;4.450;2023-04-01T07:19:02;8.59;;;8.56;;
70450;SDS011;58869;51.982;4.450;2023-04-01T07:21:37;8.08;;;8.08;;
70450;SDS011;58869;51.982;4.450;2023-04-01T07:24:13;7.84;;;7.75;;
70450;SDS011;58869;51.982;4.450;2023-04-01T07:26:47;6.83;;;6.83;;
70450;SDS011;58869;51.982;4.450;2023-04-01T07:29:18;6.42;;;6.42;;
70450;SDS011;58869;51.982;4.450;2023-04-01T07:31:54;5.59;;;5.59;;
70450;SDS011;58869;51.982;4.450;2023-04-01T07:37:10;5.76;;;5.76;;
70450;SDS011;58869;51.982;4.450;2023-04-01T07:42:41;7.73;;;7.73;;
70450;SDS011;58869;51.982;4.450;2023-04-01T07:45:30;8.47;;;8.41;;
70450;SDS011;58869;51.982;4.450;2023-04-01T07:48:11;9.83;;;9.64;;
70450;SDS011;58869;51.982;4.450;2023-04-01T07:53:49;9.44;;;9.28;;
70450;SDS011;58869;51.982;4.450;2023-04-01T07:56:35;10.05;;;9.87;;
70450;SDS011;58869;51.982;4.450;2023-04-01T08:01:39;10.83;;;10.64;;
70450;SDS011;58869;51.982;4.450;2023-04-01T08:07:22;11.02;;;10.96;;
70450;SDS011;58869;51.982;4.450;2023-04-01T08:09:54;11.79;;;11.71;;
70450;SDS011;58869;51.982;4.450;2023-04-01T08:15:38;13.57;;;13.30;;
70450;SDS011;58869;51.982;4.450;2023-04-01T08:18:20;12.97;;;12.68;;
70450;SDS011;58869;51.982;4.450;2023-04-01T08:20:59;11.85;;;11.64;;
70450;SDS011;58869;51.982;4.450;2023-04-01T08:23:37;12.28;;;12.08;;
70450;SDS011;58869;51.982;4.450;2023-04-01T08:28:51;14.71;;;14.31;;
70450;SDS011;58869;51.982;4.450;2023-04-01T08:34:15;15.72;;;15.53;;
70450;SDS011;58869;51.982;4.450;2023-04-01T08:36:46;16.04;;;15.82;;
70450;SDS011;58869;51.982;4.450;2023-04-01T08:39:29;15.02;;;14.65;;
70450;SDS011;58869;51.982;4.450;2023-04-01T08:47:50;15.07;;;14.79;;
70450;SDS011;58869;51.982;4.450;2023-04-01T09:10:11;10.69;;;10.51;;
70450;SDS011;58869;51.982;4.450;2023-04-01T09:15:35;11.37;;;11.17;;
70450;SDS011;58869;51.982;4.450;2023-04-01T09:18:24;12.89;;;12.78;;
70450;SDS011;58869;51.982;4.450;2023-04-01T09:32:42;16.06;;;15.82;;
70450;SDS011;58869;51.982;4.450;2023-04-01T09:40:56;17.86;;;16.93;;
70450;SDS011;58869;51.982;4.450;2023-04-01T09:48:29;16.97;;;16.39;;
70450;SDS011;58869;51.982;4.450;2023-04-01T09:53:48;23.22;;;22.13;;
70450;SDS011;58869;51.982;4.450;2023-04-01T10:05:13;10.80;;;10.57;;
70450;SDS011;58869;51.982;4.450;2023-04-01T10:19:39;10.94;;;10.75;;
70450;SDS011;58869;51.982;4.450;2023-04-01T10:34:00;11.61;;;11.24;;
70450;SDS011;58869;51.982;4.450;2023-04-01T10:48:07;10.25;;;10.10;;
70450;SDS011;58869;51.982;4.450;2023-04-01T11:10:24;12.75;;;12.29;;
70450;SDS011;58869;51.982;4.450;2023-04-01T11:15:46;13.58;;;12.84;;
70450;SDS011;58869;51.982;4.450;2023-04-01T11:27:03;14.87;;;13.80;;
70450;SDS011;58869;51.982;4.450;2023-04-01T11:29:59;14.39;;;13.58;;
70450;SDS011;58869;51.982;4.450;2023-04-01T11:39:13;14.41;;;13.78;;
70450;SDS011;58869;51.982;4.450;2023-04-01T11:44:58;14.43;;;13.57;;
70450;SDS011;58869;51.982;4.450;2023-04-01T11:53:05;14.85;;;14.00;;
70450;SDS011;58869;51.982;4.450;2023-04-01T11:58:59;14.22;;;13.33;;
70450;SDS011;58869;51.982;4.450;2023-04-01T12:01:54;13.44;;;12.70;;
70450;SDS011;58869;51.982;4.450;2023-04-01T12:04:35;12.83;;;12.15;;
70450;SDS011;58869;51.982;4.450;2023-04-01T12:10:20;12.54;;;11.96;;
70450;SDS011;58869;51.982;4.450;2023-04-01T12:18:38;10.97;;;10.71;;
70450;SDS011;58869;51.982;4.450;2023-04-01T12:21:17;11.87;;;11.54;;
70450;SDS011;58869;51.982;4.450;2023-04-01T12:26:40;12.38;;;11.89;;
70450;SDS011;58869;51.982;4.450;2023-04-01T12:37:44;12.44;;;11.97;;
70450;SDS011;58869;51.982;4.450;2023-04-01T12:51:21;11.72;;;11.25;;
70450;SDS011;58869;51.982;4.450;2023-04-01T13:03:02;11.57;;;11.25;;
70450;SDS011;58869;51.982;4.450;2023-04-01T13:11:39;12.34;;;11.86;;
70450;SDS011;58869;51.982;4.450;2023-04-01T13:17:08;12.15;;;11.67;;
70450;SDS011;58869;51.982;4.450;2023-04-01T13:19:47;12.72;;;12.19;;
70450;SDS011;58869;51.982;4.450;2023-04-01T13:27:49;12.49;;;12.26;;
70450;SDS011;58869;51.982;4.450;2023-04-01T13:41:22;9.15;;;9.10;;
70450;SDS011;58869;51.982;4.450;2023-04-01T13:44:14;8.52;;;8.50;;
70450;SDS011;58869;51.982;4.450;2023-04-01T13:46:58;9.04;;;9.03;;
70450;SDS011;58869;51.982;4.450;2023-04-01T13:59:57;7.59;;;7.58;;
70450;SDS011;58869;51.982;4.450;2023-04-01T14:10:31;7.31;;;7.31;;
70450;SDS011;58869;51.982;4.450;2023-04-01T14:13:13;7.65;;;7.65;;
70450;SDS011;58869;51.982;4.450;2023-04-01T14:23:41;8.78;;;8.67;;
70450;SDS011;58869;51.982;4.450;2023-04-01T14:26:22;8.66;;;8.58;;
70450;SDS011;58869;51.982;4.450;2023-04-01T14:29:11;9.05;;;8.98;;
70450;SDS011;58869;51.982;4.450;2023-04-01T14:32:02;8.77;;;8.66;;
70450;SDS011;58869;51.982;4.450;2023-04-01T14:35:03;9.18;;;9.09;;
70450;SDS011;58869;51.982;4.450;2023-04-01T14:40:56;8.64;;;8.52;;
70450;SDS011;58869;51.982;4.450;2023-04-01T14:52:04;7.54;;;7.35;;
70450;SDS011;58869;51.982;4.450;2023-04-01T14:54:36;7.69;;;7.43;;
70450;SDS011;58869;51.982;4.450;2023-04-01T14:57:11;7.29;;;7.11;;
70450;SDS011;58869;51.982;4.450;2023-04-01T15:00:01;8.15;;;7.70;;
70450;SDS011;58869;51.982;4.450;2023-04-01T15:05:15;7.46;;;7.23;;
70450;SDS011;58869;51.982;4.450;2023-04-01T15:24:24;6.32;;;6.12;;
70450;SDS011;58869;51.982;4.450;2023-04-01T15:35:42;6.42;;;6.22;;
70450;SDS011;58869;51.982;4.450;2023-04-01T15:38:23;7.52;;;7.19;;
70450;SDS011;58869;51.982;4.450;2023-04-01T16:00:17;7.98;;;7.86;;
70450;SDS011;58869;51.982;4.450;2023-04-01T16:14:52;7.41;;;7.31;;
70450;SDS011;58869;51.982;4.450;2023-04-01T16:17:05;9.12;;;9.05;;
70450;SDS011;58869;51.982;4.450;2023-04-01T16:23:20;7.67;;;7.66;;
70450;SDS011;58869;51.982;4.450;2023-04-01T16:25:53;7.65;;;7.61;;
70450;SDS011;58869;51.982;4.450;2023-04-01T16:28:34;7.87;;;7.79;;
70450;SDS011;58869;51.982;4.450;2023-04-01T16:34:16;7.65;;;7.65;;
70450;SDS011;58869;51.982;4.450;2023-04-01T16:36:54;8.04;;;8.04;;
70450;SDS011;58869;51.982;4.450;2023-04-01T16:39:35;8.46;;;8.46;;
70450;SDS011;58869;51.982;4.450;2023-04-01T16:44:31;9.00;;;9.00;;
70450;SDS011;58869;51.982;4.450;2023-04-01T16:47:12;8.47;;;8.47;;
70450;SDS011;58869;51.982;4.450;2023-04-01T16:49:46;9.05;;;9.05;;
70450;SDS011;58869;51.982;4.450;2023-04-01T16:52:29;9.40;;;9.40;;
70450;SDS011;58869;51.982;4.450;2023-04-01T16:55:14;10.17;;;10.17;;
70450;SDS011;58869;51.982;4.450;2023-04-01T16:57:56;10.24;;;10.24;;
70450;SDS011;58869;51.982;4.450;2023-04-01T17:00:25;10.59;;;10.59;;
70450;SDS011;58869;51.982;4.450;2023-04-01T17:02:56;9.99;;;9.99;;
70450;SDS011;58869;51.982;4.450;2023-04-01T17:05:37;9.67;;;9.67;;
70450;SDS011;58869;51.982;4.450;2023-04-01T17:16:59;9.48;;;9.48;;
70450;SDS011;58869;51.982;4.450;2023-04-01T17:19:53;9.42;;;9.42;;
70450;SDS011;58869;51.982;4.450;2023-04-01T17:22:37;9.68;;;9.68;;
70450;SDS011;58869;51.982;4.450;2023-04-01T17:30:24;8.85;;;8.85;;
70450;SDS011;58869;51.982;4.450;2023-04-01T17:35:35;10.12;;;10.12;;
70450;SDS011;58869;51.982;4.450;2023-04-01T17:38:20;9.08;;;9.08;;
70450;SDS011;58869;51.982;4.450;2023-04-01T17:49:35;9.08;;;9.08;;
70450;SDS011;58869;51.982;4.450;2023-04-01T17:52:12;9.29;;;9.29;;
70450;SDS011;58869;51.982;4.450;2023-04-01T17:54:58;9.42;;;9.42;;
70450;SDS011;58869;51.982;4.450;2023-04-01T18:00:37;9.27;;;9.27;;
70450;SDS011;58869;51.982;4.450;2023-04-01T18:08:41;9.52;;;9.52;;
70450;SDS011;58869;51.982;4.450;2023-04-01T18:19:30;8.65;;;8.65;;
70450;SDS011;58869;51.982;4.450;2023-04-01T18:22:16;8.38;;;8.38;;
70450;SDS011;58869;51.982;4.450;2023-04-01T18:24:49;8.39;;;8.39;;
70450;SDS011;58869;51.982;4.450;2023-04-01T18:27:28;8.60;;;8.60;;
70450;SDS011;58869;51.982;4.450;2023-04-01T18:30:00;8.69;;;8.69;;
70450;SDS011;58869;51.982;4.450;2023-04-01T18:32:47;9.59;;;9.59;;
70450;SDS011;58869;51.982;4.450;2023-04-01T18:37:51;8.87;;;8.87;;
70450;SDS011;58869;51.982;4.450;2023-04-01T18:40:37;8.01;;;8.01;;
70450;SDS011;58869;51.982;4.450;2023-04-01T18:51:09;8.67;;;8.67;;
70450;SDS011;58869;51.982;4.450;2023-04-01T18:54:05;8.66;;;8.66;;
70450;SDS011;58869;51.982;4.450;2023-04-01T18:56:48;8.89;;;8.89;;
70450;SDS011;58869;51.982;4.450;2023-04-01T18:59:16;9.30;;;9.30;;
70450;SDS011;58869;51.982;4.450;2023-04-01T19:06:58;9.57;;;9.57;;
70450;SDS011;58869;51.982;4.450;2023-04-01T19:09:48;9.48;;;9.48;;
70450;SDS011;58869;51.982;4.450;2023-04-01T19:12:22;10.69;;;10.69;;
70450;SDS011;58869;51.982;4.450;2023-04-01T19:20:29;9.43;;;9.43;;
70450;SDS011;58869;51.982;4.450;2023-04-01T19:25:48;9.33;;;9.33;;
70450;SDS011;58869;51.982;4.450;2023-04-01T19:28:21;8.92;;;8.92;;
70450;SDS011;58869;51.982;4.450;2023-04-01T19:33:47;9.68;;;9.68;;
70450;SDS011;58869;51.982;4.450;2023-04-01T19:36:27;9.28;;;9.28;;
70450;SDS011;58869;51.982;4.450;2023-04-01T19:39:31;8.88;;;8.88;;
70450;SDS011;58869;51.982;4.450;2023-04-01T19:42:30;8.37;;;8.37;;
70450;SDS011;58869;51.982;4.450;2023-04-01T19:51:00;8.22;;;8.22;;
70450;SDS011;58869;51.982;4.450;2023-04-01T19:53:40;8.72;;;8.72;;
70450;SDS011;58869;51.982;4.450;2023-04-01T19:56:36;9.19;;;9.19;;
70450;SDS011;58869;51.982;4.450;2023-04-01T19:59:48;9.40;;;9.40;;
70450;SDS011;58869;51.982;4.450;2023-04-01T20:04:34;9.68;;;9.68;;
70450;SDS011;58869;51.982;4.450;2023-04-01T20:18:21;11.25;;;11.25;;
70450;SDS011;58869;51.982;4.450;2023-04-01T20:20:56;11.45;;;11.45;;
70450;SDS011;58869;51.982;4.450;2023-04-01T20:23:33;11.50;;;11.50;;
70450;SDS011;58869;51.982;4.450;2023-04-01T20:26:09;11.16;;;11.16;;
70450;SDS011;58869;51.982;4.450;2023-04-01T20:45:31;11.35;;;11.35;;
70450;SDS011;58869;51.982;4.450;2023-04-01T20:48:24;12.77;;;12.77;;
70450;SDS011;58869;51.982;4.450;2023-04-01T20:51:20;13.32;;;13.32;;
70450;SDS011;58869;51.982;4.450;2023-04-01T20:54:09;13.86;;;13.86;;
70450;SDS011;58869;51.982;4.450;2023-04-01T20:59:47;15.15;;;15.15;;
70450;SDS011;58869;51.982;4.450;2023-04-01T21:10:31;10.54;;;10.54;;
70450;SDS011;58869;51.982;4.450;2023-04-01T21:13:19;10.04;;;10.04;;
70450;SDS011;58869;51.982;4.450;2023-04-01T21:16:26;9.25;;;9.25;;
70450;SDS011;58869;51.982;4.450;2023-04-01T21:19:14;9.88;;;9.88;;
70450;SDS011;58869;51.982;4.450;2023-04-01T21:22:07;11.66;;;11.66;;
70450;SDS011;58869;51.982;4.450;2023-04-01T21:30:14;11.98;;;11.98;;
70450;SDS011;58869;51.982;4.450;2023-04-01T21:36:10;10.81;;;10.81;;
70450;SDS011;58869;51.982;4.450;2023-04-01T21:40:03;9.92;;;9.92;;
70450;SDS011;58869;51.982;4.450;2023-04-01T21:42:19;9.34;;;9.34;;
70450;SDS011;58869;51.982;4.450;2023-04-01T21:45:23;9.04;;;9.04;;
70450;SDS011;58869;51.982;4.450;2023-04-01T21:51:04;9.30;;;9.30;;
70450;SDS011;58869;51.982;4.450;2023-04-01T22:07:52;9.12;;;9.12;;
70450;SDS011;58869;51.982;4.450;2023-04-01T22:13:24;8.45;;;8.45;;
70450;SDS011;58869;51.982;4.450;2023-04-01T22:21:27;8.10;;;8.10;;
70450;SDS011;58869;51.982;4.450;2023-04-01T22:24:23;8.45;;;8.45;;
70450;SDS011;58869;51.982;4.450;2023-04-01T22:27:06;8.14;;;8.14;;
70450;SDS011;58869;51.982;4.450;2023-04-01T22:29:57;8.35;;;8.35;;
70450;SDS011;58869;51.982;4.450;2023-04-01T22:32:52;8.34;;;8.34;;
70450;SDS011;58869;51.982;4.450;2023-04-01T22:38:37;9.23;;;9.23;;
70450;SDS011;58869;51.982;4.450;2023-04-01T22:43:58;9.48;;;9.48;;
70450;SDS011;58869;51.982;4.450;2023-04-01T22:49:20;10.26;;;10.26;;
70450;SDS011;58869;51.982;4.450;2023-04-01T22:52:03;10.04;;;10.04;;
70450;SDS011;58869;51.982;4.450;2023-04-01T22:54:46;10.63;;;10.63;;
70450;SDS011;58869;51.982;4.450;2023-04-01T23:00:21;10.43;;;10.43;;
70450;SDS011;58869;51.982;4.450;2023-04-01T23:05:30;11.03;;;11.03;;
70450;SDS011;58869;51.982;4.450;2023-04-01T23:10:49;11.53;;;11.53;;
70450;SDS011;58869;51.982;4.450;2023-04-01T23:13:24;11.55;;;11.54;;
70450;SDS011;58869;51.982;4.450;2023-04-01T23:15:54;11.55;;;11.55;;
70450;SDS011;58869;51.982;4.450;2023-04-01T23:19:07;12.07;;;12.07;;
70450;SDS011;58869;51.982;4.450;2023-04-01T23:27:17;11.14;;;11.14;;
70450;SDS011;58869;51.982;4.450;2023-04-01T23:29:53;11.33;;;11.33;;
70450;SDS011;58869;51.982;4.450;2023-04-01T23:32:18;11.18;;;11.18;;
70450;SDS011;58869;51.982;4.450;2023-04-01T23:34:51;11.73;;;11.73;;
70450;SDS011;58869;51.982;4.450;2023-04-01T23:37:24;12.04;;;12.04;;
70450;SDS011;58869;51.982;4.450;2023-04-01T23:39:55;12.17;;;12.17;;
70450;SDS011;58869;51.982;4.450;2023-04-01T23:42:26;11.93;;;11.91;;
70450;SDS011;58869;51.982;4.450;2023-04-01T23:44:56;12.76;;;12.76;;
70450;SDS011;58869;51.982;4.450;2023-04-01T23:47:24;13.12;;;13.12;;
70450;SDS011;58869;51.982;4.450;2023-04-01T23:49:57;12.85;;;12.85;;
70450;SDS011;58869;51.982;4.450;2023-04-01T23:52:30;12.68;;;12.68;;
70450;SDS011;58869;51.982;4.450;2023-04-01T23:55:12;12.74;;;12.74;;
70450;SDS011;58869;51.982;4.450;2023-04-01T23:57:41;12.83;;;12.83;;
